Arnott, Wisconsin
Current Conditions -  °F | °C
As of 6:55 PM on Sunday 23 Nov 2014 (Local Time) from KSTE Reporting Station
Haze Haze  
Wind Chill: 43°   Ceiling: 200
Heat Index: 43°   Visibility: 1mi
Dew Point: 43°   Wind: 0mph
Humidity: 100%   Direction: NA
Pressure: 29.34"   Gusts: NA
Location:  44.5531°N, 89.5186°W
Report Text: KSTE 240055Z AUTO 00000KT 1SM BR OVC002 06/06 A2934 RMK AO2 T00630063
Loading
Personal Weather Stations






























Interactive Weather Map New forecast layout! Learn more

10-Day Weather Forecast

Advertisements
Track Severe Weather on mobile